sensor_id;sensor_type;location;lat;lon;timestamp;temperature;humidity
34147;DHT22;20423;49.448;9.056;2023-08-08T00:02:19;10.20;99.90
34147;DHT22;20423;49.448;9.056;2023-08-08T00:04:45;10.00;99.90
34147;DHT22;20423;49.448;9.056;2023-08-08T00:07:10;9.80;99.90
34147;DHT22;20423;49.448;9.056;2023-08-08T00:09:36;9.70;99.90
34147;DHT22;20423;49.448;9.056;2023-08-08T00:12:03;9.70;99.90
34147;DHT22;20423;49.448;9.056;2023-08-08T00:14:28;9.60;99.90
34147;DHT22;20423;49.448;9.056;2023-08-08T00:16:54;9.50;99.90
34147;DHT22;20423;49.448;9.056;2023-08-08T00:19:19;9.40;99.90
34147;DHT22;20423;49.448;9.056;2023-08-08T00:21:45;9.40;99.90
34147;DHT22;20423;49.448;9.056;2023-08-08T00:24:11;9.50;99.90
34147;DHT22;20423;49.448;9.056;2023-08-08T00:26:36;9.50;99.90
34147;DHT22;20423;49.448;9.056;2023-08-08T00:29:02;9.50;99.90
34147;DHT22;20423;49.448;9.056;2023-08-08T00:31:27;9.40;99.90
34147;DHT22;20423;49.448;9.056;2023-08-08T00:33:53;9.40;99.90
34147;DHT22;20423;49.448;9.056;2023-08-08T00:36:18;9.40;99.90
34147;DHT22;20423;49.448;9.056;2023-08-08T00:38:44;9.50;99.90
34147;DHT22;20423;49.448;9.056;2023-08-08T00:41:10;9.60;99.90
34147;DHT22;20423;49.448;9.056;2023-08-08T00:43:35;9.80;99.90
34147;DHT22;20423;49.448;9.056;2023-08-08T00:46:01;10.00;99.90
34147;DHT22;20423;49.448;9.056;2023-08-08T00:48:26;10.10;99.90
34147;DHT22;20423;49.448;9.056;2023-08-08T00:53:46;10.10;99.90
34147;DHT22;20423;49.448;9.056;2023-08-08T00:56:13;9.90;99.90
34147;DHT22;20423;49.448;9.056;2023-08-08T00:58:39;9.90;99.90
34147;DHT22;20423;49.448;9.056;2023-08-08T01:01:05;9.90;99.90
34147;DHT22;20423;49.448;9.056;2023-08-08T01:03:30;9.90;99.90
34147;DHT22;20423;49.448;9.056;2023-08-08T01:06:08;9.90;99.90
34147;DHT22;20423;49.448;9.056;2023-08-08T01:08:37;9.90;99.90
34147;DHT22;20423;49.448;9.056;2023-08-08T01:11:04;10.00;99.90
34147;DHT22;20423;49.448;9.056;2023-08-08T01:13:30;10.10;99.90
34147;DHT22;20423;49.448;9.056;2023-08-08T01:15:56;10.30;99.90
34147;DHT22;20423;49.448;9.056;2023-08-08T01:18:23;10.30;99.90
34147;DHT22;20423;49.448;9.056;2023-08-08T01:20:48;10.50;99.90
34147;DHT22;20423;49.448;9.056;2023-08-08T01:23:19;10.50;99.90
34147;DHT22;20423;49.448;9.056;2023-08-08T01:25:44;10.60;99.90
34147;DHT22;20423;49.448;9.056;2023-08-08T01:28:11;10.50;99.90
34147;DHT22;20423;49.448;9.056;2023-08-08T01:30:37;10.60;99.90
34147;DHT22;20423;49.448;9.056;2023-08-08T01:33:02;10.60;99.90
34147;DHT22;20423;49.448;9.056;2023-08-08T01:35:29;10.60;99.90
34147;DHT22;20423;49.448;9.056;2023-08-08T01:37:58;10.60;99.90
34147;DHT22;20423;49.448;9.056;2023-08-08T01:40:26;10.60;99.90
34147;DHT22;20423;49.448;9.056;2023-08-08T01:42:52;10.60;99.90
34147;DHT22;20423;49.448;9.056;2023-08-08T01:45:18;10.40;99.90
34147;DHT22;20423;49.448;9.056;2023-08-08T01:47:51;10.40;99.90
34147;DHT22;20423;49.448;9.056;2023-08-08T01:50:17;10.20;99.90
34147;DHT22;20423;49.448;9.056;2023-08-08T01:52:42;10.20;99.90
34147;DHT22;20423;49.448;9.056;2023-08-08T01:55:08;10.10;99.90
34147;DHT22;20423;49.448;9.056;2023-08-08T01:57:34;10.10;99.90
34147;DHT22;20423;49.448;9.056;2023-08-08T02:00:00;10.00;99.90
34147;DHT22;20423;49.448;9.056;2023-08-08T02:02:25;9.90;99.90
34147;DHT22;20423;49.448;9.056;2023-08-08T02:04:52;9.90;99.90
34147;DHT22;20423;49.448;9.056;2023-08-08T02:07:18;9.80;99.90
34147;DHT22;20423;49.448;9.056;2023-08-08T02:09:44;9.70;99.90
34147;DHT22;20423;49.448;9.056;2023-08-08T02:12:11;9.50;99.90
34147;DHT22;20423;49.448;9.056;2023-08-08T02:14:37;9.50;99.90
34147;DHT22;20423;49.448;9.056;2023-08-08T02:17:02;9.50;99.90
34147;DHT22;20423;49.448;9.056;2023-08-08T02:19:30;9.40;99.90
34147;DHT22;20423;49.448;9.056;2023-08-08T02:21:56;9.30;99.90
34147;DHT22;20423;49.448;9.056;2023-08-08T02:24:21;9.20;99.90
34147;DHT22;20423;49.448;9.056;2023-08-08T02:26:47;9.20;99.90
34147;DHT22;20423;49.448;9.056;2023-08-08T02:29:13;9.10;99.90
34147;DHT22;20423;49.448;9.056;2023-08-08T02:31:39;9.00;99.90
34147;DHT22;20423;49.448;9.056;2023-08-08T02:34:04;8.90;99.90
34147;DHT22;20423;49.448;9.056;2023-08-08T02:36:30;8.80;99.90
34147;DHT22;20423;49.448;9.056;2023-08-08T02:42:24;8.60;99.90
34147;DHT22;20423;49.448;9.056;2023-08-08T02:44:50;8.70;99.90
34147;DHT22;20423;49.448;9.056;2023-08-08T02:47:15;8.70;99.90
34147;DHT22;20423;49.448;9.056;2023-08-08T02:49:41;8.70;99.90
34147;DHT22;20423;49.448;9.056;2023-08-08T02:52:07;8.60;99.90
34147;DHT22;20423;49.448;9.056;2023-08-08T02:54:34;8.60;99.90
34147;DHT22;20423;49.448;9.056;2023-08-08T02:57:00;8.50;99.90
34147;DHT22;20423;49.448;9.056;2023-08-08T02:59:25;8.40;99.90
34147;DHT22;20423;49.448;9.056;2023-08-08T03:01:52;8.40;99.90
34147;DHT22;20423;49.448;9.056;2023-08-08T03:04:18;8.40;99.90
34147;DHT22;20423;49.448;9.056;2023-08-08T03:06:44;8.50;99.90
34147;DHT22;20423;49.448;9.056;2023-08-08T03:09:10;8.50;99.90
34147;DHT22;20423;49.448;9.056;2023-08-08T03:11:37;8.60;99.90
34147;DHT22;20423;49.448;9.056;2023-08-08T03:14:07;8.60;99.90
34147;DHT22;20423;49.448;9.056;2023-08-08T03:16:35;8.50;99.90
34147;DHT22;20423;49.448;9.056;2023-08-08T03:19:01;8.50;99.90
34147;DHT22;20423;49.448;9.056;2023-08-08T03:21:27;8.50;99.90
34147;DHT22;20423;49.448;9.056;2023-08-08T03:23:53;8.70;99.90
34147;DHT22;20423;49.448;9.056;2023-08-08T03:26:19;8.90;99.90
34147;DHT22;20423;49.448;9.056;2023-08-08T03:28:45;9.10;99.90
34147;DHT22;20423;49.448;9.056;2023-08-08T03:31:17;9.20;99.90
34147;DHT22;20423;49.448;9.056;2023-08-08T03:33:43;9.30;99.90
34147;DHT22;20423;49.448;9.056;2023-08-08T03:36:10;9.40;99.90
34147;DHT22;20423;49.448;9.056;2023-08-08T03:38:35;9.50;99.90
34147;DHT22;20423;49.448;9.056;2023-08-08T03:41:03;9.60;99.90
34147;DHT22;20423;49.448;9.056;2023-08-08T03:43:29;9.70;99.90
34147;DHT22;20423;49.448;9.056;2023-08-08T03:45:55;9.80;99.90
34147;DHT22;20423;49.448;9.056;2023-08-08T03:48:21;10.00;99.90
34147;DHT22;20423;49.448;9.056;2023-08-08T03:53:32;10.00;99.90
34147;DHT22;20423;49.448;9.056;2023-08-08T03:55:58;9.90;99.90
34147;DHT22;20423;49.448;9.056;2023-08-08T03:58:23;9.90;99.90
34147;DHT22;20423;49.448;9.056;2023-08-08T04:00:49;9.80;99.90
34147;DHT22;20423;49.448;9.056;2023-08-08T04:03:15;9.80;99.90
34147;DHT22;20423;49.448;9.056;2023-08-08T04:05:43;9.80;99.90
34147;DHT22;20423;49.448;9.056;2023-08-08T04:08:11;9.90;99.90
34147;DHT22;20423;49.448;9.056;2023-08-08T04:10:37;10.00;99.90
34147;DHT22;20423;49.448;9.056;2023-08-08T04:13:02;10.10;99.90
34147;DHT22;20423;49.448;9.056;2023-08-08T04:15:28;10.20;99.90
34147;DHT22;20423;49.448;9.056;2023-08-08T04:17:54;10.20;99.90
34147;DHT22;20423;49.448;9.056;2023-08-08T04:20:19;10.20;99.90
34147;DHT22;20423;49.448;9.056;2023-08-08T04:22:45;10.30;99.90
34147;DHT22;20423;49.448;9.056;2023-08-08T04:25:10;10.30;99.90
34147;DHT22;20423;49.448;9.056;2023-08-08T04:27:36;10.30;99.90
34147;DHT22;20423;49.448;9.056;2023-08-08T04:30:02;10.30;99.90
34147;DHT22;20423;49.448;9.056;2023-08-08T04:32:28;10.20;99.90
34147;DHT22;20423;49.448;9.056;2023-08-08T04:34:54;10.20;99.90
34147;DHT22;20423;49.448;9.056;2023-08-08T04:37:19;10.10;99.90
34147;DHT22;20423;49.448;9.056;2023-08-08T04:39:45;10.10;99.90
34147;DHT22;20423;49.448;9.056;2023-08-08T04:42:10;10.00;99.90
34147;DHT22;20423;49.448;9.056;2023-08-08T04:44:36;10.10;99.90
34147;DHT22;20423;49.448;9.056;2023-08-08T04:47:02;10.00;99.90
34147;DHT22;20423;49.448;9.056;2023-08-08T04:49:27;10.00;99.90
34147;DHT22;20423;49.448;9.056;2023-08-08T04:51:54;10.00;99.90
34147;DHT22;20423;49.448;9.056;2023-08-08T04:54:19;10.00;99.90
34147;DHT22;20423;49.448;9.056;2023-08-08T04:56:45;10.00;99.90
34147;DHT22;20423;49.448;9.056;2023-08-08T04:59:11;10.00;99.90
34147;DHT22;20423;49.448;9.056;2023-08-08T05:01:36;10.00;99.90
34147;DHT22;20423;49.448;9.056;2023-08-08T05:04:02;10.00;99.90
34147;DHT22;20423;49.448;9.056;2023-08-08T05:06:27;10.00;99.90
34147;DHT22;20423;49.448;9.056;2023-08-08T05:08:53;10.10;99.90
34147;DHT22;20423;49.448;9.056;2023-08-08T05:11:19;10.10;99.90
34147;DHT22;20423;49.448;9.056;2023-08-08T05:13:44;10.20;99.90
34147;DHT22;20423;49.448;9.056;2023-08-08T05:16:10;10.30;99.90
34147;DHT22;20423;49.448;9.056;2023-08-08T05:18:35;10.50;99.90
34147;DHT22;20423;49.448;9.056;2023-08-08T05:21:01;10.60;99.90
34147;DHT22;20423;49.448;9.056;2023-08-08T05:23:27;10.60;99.90
34147;DHT22;20423;49.448;9.056;2023-08-08T05:25:52;10.70;99.90
34147;DHT22;20423;49.448;9.056;2023-08-08T05:28:18;10.70;99.90
34147;DHT22;20423;49.448;9.056;2023-08-08T05:30:44;10.80;99.90
34147;DHT22;20423;49.448;9.056;2023-08-08T05:33:09;10.80;99.90
34147;DHT22;20423;49.448;9.056;2023-08-08T05:35:35;10.70;99.90
34147;DHT22;20423;49.448;9.056;2023-08-08T05:38:00;10.70;99.90
34147;DHT22;20423;49.448;9.056;2023-08-08T05:40:26;10.80;99.90
34147;DHT22;20423;49.448;9.056;2023-08-08T05:42:51;10.80;99.90
34147;DHT22;20423;49.448;9.056;2023-08-08T05:45:17;10.80;99.90
34147;DHT22;20423;49.448;9.056;2023-08-08T05:47:43;10.90;99.90
34147;DHT22;20423;49.448;9.056;2023-08-08T05:50:08;11.10;99.90
34147;DHT22;20423;49.448;9.056;2023-08-08T05:52:34;11.30;99.90
34147;DHT22;20423;49.448;9.056;2023-08-08T05:55:00;11.40;99.90
34147;DHT22;20423;49.448;9.056;2023-08-08T05:57:26;11.40;99.90
34147;DHT22;20423;49.448;9.056;2023-08-08T05:59:52;11.40;99.90
34147;DHT22;20423;49.448;9.056;2023-08-08T06:02:17;11.40;99.90
34147;DHT22;20423;49.448;9.056;2023-08-08T06:04:43;11.30;99.90
34147;DHT22;20423;49.448;9.056;2023-08-08T06:07:09;11.30;99.90
34147;DHT22;20423;49.448;9.056;2023-08-08T06:09:35;11.20;99.90
34147;DHT22;20423;49.448;9.056;2023-08-08T06:12:02;11.20;99.90
34147;DHT22;20423;49.448;9.056;2023-08-08T06:14:27;11.20;99.90
34147;DHT22;20423;49.448;9.056;2023-08-08T06:16:53;11.30;99.90
34147;DHT22;20423;49.448;9.056;2023-08-08T06:19:19;11.40;99.90
34147;DHT22;20423;49.448;9.056;2023-08-08T06:21:45;11.40;99.90
34147;DHT22;20423;49.448;9.056;2023-08-08T06:24:12;11.50;99.90
34147;DHT22;20423;49.448;9.056;2023-08-08T06:26:38;11.60;99.90
34147;DHT22;20423;49.448;9.056;2023-08-08T06:29:03;11.60;99.90
34147;DHT22;20423;49.448;9.056;2023-08-08T06:31:29;11.70;99.90
34147;DHT22;20423;49.448;9.056;2023-08-08T06:33:55;11.80;99.90
34147;DHT22;20423;49.448;9.056;2023-08-08T06:36:21;11.90;99.90
34147;DHT22;20423;49.448;9.056;2023-08-08T06:38:47;11.90;99.90
34147;DHT22;20423;49.448;9.056;2023-08-08T06:41:12;11.90;99.90
34147;DHT22;20423;49.448;9.056;2023-08-08T06:43:38;12.00;99.90
34147;DHT22;20423;49.448;9.056;2023-08-08T06:46:04;12.10;99.90
34147;DHT22;20423;49.448;9.056;2023-08-08T06:48:30;12.10;99.90
34147;DHT22;20423;49.448;9.056;2023-08-08T06:50:56;12.30;99.90
34147;DHT22;20423;49.448;9.056;2023-08-08T06:53:21;12.40;99.90
34147;DHT22;20423;49.448;9.056;2023-08-08T06:55:47;12.50;99.90
34147;DHT22;20423;49.448;9.056;2023-08-08T06:58:12;12.50;99.90
34147;DHT22;20423;49.448;9.056;2023-08-08T07:00:38;12.60;99.90
34147;DHT22;20423;49.448;9.056;2023-08-08T07:03:04;12.70;99.90
34147;DHT22;20423;49.448;9.056;2023-08-08T07:05:30;12.70;99.90
34147;DHT22;20423;49.448;9.056;2023-08-08T07:07:56;12.80;99.90
34147;DHT22;20423;49.448;9.056;2023-08-08T07:10:22;12.80;99.90
34147;DHT22;20423;49.448;9.056;2023-08-08T07:12:47;12.90;99.90
34147;DHT22;20423;49.448;9.056;2023-08-08T07:15:14;13.00;99.90
34147;DHT22;20423;49.448;9.056;2023-08-08T07:17:39;13.10;99.90
34147;DHT22;20423;49.448;9.056;2023-08-08T07:20:05;13.10;99.90
34147;DHT22;20423;49.448;9.056;2023-08-08T07:22:31;13.10;99.90
34147;DHT22;20423;49.448;9.056;2023-08-08T07:24:57;13.20;99.90
34147;DHT22;20423;49.448;9.056;2023-08-08T07:27:23;13.10;99.90
34147;DHT22;20423;49.448;9.056;2023-08-08T07:29:49;13.10;99.90
34147;DHT22;20423;49.448;9.056;2023-08-08T07:32:14;13.10;99.90
34147;DHT22;20423;49.448;9.056;2023-08-08T07:34:40;13.10;99.90
34147;DHT22;20423;49.448;9.056;2023-08-08T07:37:06;13.10;99.90
34147;DHT22;20423;49.448;9.056;2023-08-08T07:39:31;13.20;99.90
34147;DHT22;20423;49.448;9.056;2023-08-08T07:41:57;13.30;99.90
34147;DHT22;20423;49.448;9.056;2023-08-08T07:44:23;13.40;99.90
34147;DHT22;20423;49.448;9.056;2023-08-08T07:46:48;13.50;99.90
34147;DHT22;20423;49.448;9.056;2023-08-08T07:49:14;13.70;99.90
34147;DHT22;20423;49.448;9.056;2023-08-08T07:51:40;13.80;99.90
34147;DHT22;20423;49.448;9.056;2023-08-08T07:54:05;13.80;99.90
34147;DHT22;20423;49.448;9.056;2023-08-08T07:56:34;14.00;99.90
34147;DHT22;20423;49.448;9.056;2023-08-08T07:59:00;14.10;99.90
34147;DHT22;20423;49.448;9.056;2023-08-08T08:01:27;14.40;99.90
34147;DHT22;20423;49.448;9.056;2023-08-08T08:03:52;14.80;99.90
34147;DHT22;20423;49.448;9.056;2023-08-08T08:06:18;15.10;99.90
34147;DHT22;20423;49.448;9.056;2023-08-08T08:08:44;15.30;99.90
34147;DHT22;20423;49.448;9.056;2023-08-08T08:11:10;15.50;99.90
34147;DHT22;20423;49.448;9.056;2023-08-08T08:13:36;15.80;99.90
34147;DHT22;20423;49.448;9.056;2023-08-08T08:16:02;15.90;99.90
34147;DHT22;20423;49.448;9.056;2023-08-08T08:18:27;16.00;99.90
34147;DHT22;20423;49.448;9.056;2023-08-08T08:20:54;16.10;99.90
34147;DHT22;20423;49.448;9.056;2023-08-08T08:23:20;16.10;99.90
34147;DHT22;20423;49.448;9.056;2023-08-08T08:25:46;16.10;99.90
34147;DHT22;20423;49.448;9.056;2023-08-08T08:28:12;16.00;99.90
34147;DHT22;20423;49.448;9.056;2023-08-08T08:30:38;16.00;99.90
34147;DHT22;20423;49.448;9.056;2023-08-08T08:33:03;15.80;99.90
34147;DHT22;20423;49.448;9.056;2023-08-08T08:35:32;15.80;99.90
34147;DHT22;20423;49.448;9.056;2023-08-08T08:37:58;16.20;99.90
34147;DHT22;20423;49.448;9.056;2023-08-08T08:40:23;16.30;99.90
34147;DHT22;20423;49.448;9.056;2023-08-08T08:42:49;16.30;99.90
34147;DHT22;20423;49.448;9.056;2023-08-08T08:45:15;16.40;99.90
34147;DHT22;20423;49.448;9.056;2023-08-08T08:47:43;16.50;99.90
34147;DHT22;20423;49.448;9.056;2023-08-08T08:50:12;16.30;99.90
34147;DHT22;20423;49.448;9.056;2023-08-08T08:52:41;16.30;99.90
34147;DHT22;20423;49.448;9.056;2023-08-08T08:55:07;16.60;99.90
34147;DHT22;20423;49.448;9.056;2023-08-08T08:57:33;16.30;99.90
34147;DHT22;20423;49.448;9.056;2023-08-08T08:59:59;16.50;99.90
34147;DHT22;20423;49.448;9.056;2023-08-08T09:02:25;16.50;99.90
34147;DHT22;20423;49.448;9.056;2023-08-08T09:05:00;16.60;99.90
34147;DHT22;20423;49.448;9.056;2023-08-08T09:07:27;16.80;99.90
34147;DHT22;20423;49.448;9.056;2023-08-08T09:09:55;16.90;99.90
34147;DHT22;20423;49.448;9.056;2023-08-08T09:12:20;17.20;99.90
34147;DHT22;20423;49.448;9.056;2023-08-08T09:14:46;17.50;99.90
34147;DHT22;20423;49.448;9.056;2023-08-08T09:17:14;17.60;99.90
34147;DHT22;20423;49.448;9.056;2023-08-08T09:19:43;18.00;99.90
34147;DHT22;20423;49.448;9.056;2023-08-08T09:22:09;17.90;99.90
34147;DHT22;20423;49.448;9.056;2023-08-08T09:24:39;18.10;99.90
34147;DHT22;20423;49.448;9.056;2023-08-08T09:27:06;17.90;99.90
34147;DHT22;20423;49.448;9.056;2023-08-08T09:29:32;17.80;99.90
34147;DHT22;20423;49.448;9.056;2023-08-08T09:31:58;18.40;99.90
34147;DHT22;20423;49.448;9.056;2023-08-08T09:34:24;18.40;99.90
34147;DHT22;20423;49.448;9.056;2023-08-08T09:36:49;18.50;99.90
34147;DHT22;20423;49.448;9.056;2023-08-08T09:39:16;18.60;99.90
34147;DHT22;20423;49.448;9.056;2023-08-08T09:41:41;18.80;99.90
34147;DHT22;20423;49.448;9.056;2023-08-08T09:44:07;18.80;99.90
34147;DHT22;20423;49.448;9.056;2023-08-08T09:46:33;19.20;99.90
34147;DHT22;20423;49.448;9.056;2023-08-08T09:49:00;19.90;99.90
34147;DHT22;20423;49.448;9.056;2023-08-08T09:51:26;20.50;99.90
34147;DHT22;20423;49.448;9.056;2023-08-08T09:53:52;20.70;99.90
34147;DHT22;20423;49.448;9.056;2023-08-08T09:56:18;20.60;99.90
34147;DHT22;20423;49.448;9.056;2023-08-08T09:58:44;20.70;99.90
34147;DHT22;20423;49.448;9.056;2023-08-08T10:01:11;20.60;99.90
34147;DHT22;20423;49.448;9.056;2023-08-08T10:03:38;20.80;99.90
34147;DHT22;20423;49.448;9.056;2023-08-08T10:06:03;20.60;99.90
34147;DHT22;20423;49.448;9.056;2023-08-08T10:08:29;19.80;99.90
34147;DHT22;20423;49.448;9.056;2023-08-08T10:10:55;19.50;99.90
34147;DHT22;20423;49.448;9.056;2023-08-08T10:13:22;19.30;99.90
34147;DHT22;20423;49.448;9.056;2023-08-08T10:15:48;19.50;99.90
34147;DHT22;20423;49.448;9.056;2023-08-08T10:18:13;19.20;99.90
34147;DHT22;20423;49.448;9.056;2023-08-08T10:20:41;19.70;99.90
34147;DHT22;20423;49.448;9.056;2023-08-08T10:23:07;19.70;99.90
34147;DHT22;20423;49.448;9.056;2023-08-08T10:25:33;19.30;99.90
34147;DHT22;20423;49.448;9.056;2023-08-08T10:30:29;19.70;99.90
34147;DHT22;20423;49.448;9.056;2023-08-08T10:32:56;20.10;99.90
34147;DHT22;20423;49.448;9.056;2023-08-08T10:35:21;20.70;99.90
34147;DHT22;20423;49.448;9.056;2023-08-08T10:37:53;20.70;99.90
34147;DHT22;20423;49.448;9.056;2023-08-08T10:40:19;20.90;99.90
34147;DHT22;20423;49.448;9.056;2023-08-08T10:42:45;20.40;99.90
34147;DHT22;20423;49.448;9.056;2023-08-08T10:45:12;19.80;99.90
34147;DHT22;20423;49.448;9.056;2023-08-08T10:47:41;19.50;99.90
34147;DHT22;20423;49.448;9.056;2023-08-08T10:55:05;19.20;99.90
34147;DHT22;20423;49.448;9.056;2023-08-08T10:57:31;19.90;99.90
34147;DHT22;20423;49.448;9.056;2023-08-08T11:00:15;20.60;99.90
34147;DHT22;20423;49.448;9.056;2023-08-08T11:02:41;20.20;99.90
34147;DHT22;20423;49.448;9.056;2023-08-08T11:05:07;20.30;99.90
34147;DHT22;20423;49.448;9.056;2023-08-08T11:07:32;20.60;99.90
34147;DHT22;20423;49.448;9.056;2023-08-08T11:10:00;21.10;99.90
34147;DHT22;20423;49.448;9.056;2023-08-08T11:12:26;20.70;99.90
34147;DHT22;20423;49.448;9.056;2023-08-08T11:14:52;20.80;99.90
34147;DHT22;20423;49.448;9.056;2023-08-08T11:17:17;20.90;99.90
34147;DHT22;20423;49.448;9.056;2023-08-08T11:19:43;21.10;99.90
34147;DHT22;20423;49.448;9.056;2023-08-08T11:22:09;20.90;99.90
34147;DHT22;20423;49.448;9.056;2023-08-08T11:24:36;20.80;99.90
34147;DHT22;20423;49.448;9.056;2023-08-08T11:27:02;20.70;99.90
34147;DHT22;20423;49.448;9.056;2023-08-08T11:29:27;20.50;99.90
34147;DHT22;20423;49.448;9.056;2023-08-08T11:32:02;20.90;99.90
34147;DHT22;20423;49.448;9.056;2023-08-08T11:34:34;20.60;99.90
34147;DHT22;20423;49.448;9.056;2023-08-08T11:37:00;20.40;99.90
34147;DHT22;20423;49.448;9.056;2023-08-08T11:39:26;20.30;99.90
34147;DHT22;20423;49.448;9.056;2023-08-08T11:41:52;20.00;99.90
34147;DHT22;20423;49.448;9.056;2023-08-08T11:44:18;19.60;99.90
34147;DHT22;20423;49.448;9.056;2023-08-08T11:46:47;19.50;99.90
34147;DHT22;20423;49.448;9.056;2023-08-08T11:49:16;19.10;99.90
34147;DHT22;20423;49.448;9.056;2023-08-08T11:51:43;19.20;99.90
34147;DHT22;20423;49.448;9.056;2023-08-08T11:54:10;19.60;99.90
34147;DHT22;20423;49.448;9.056;2023-08-08T11:56:35;20.20;99.90
34147;DHT22;20423;49.448;9.056;2023-08-08T11:59:01;19.90;99.90
34147;DHT22;20423;49.448;9.056;2023-08-08T12:01:27;19.80;99.90
34147;DHT22;20423;49.448;9.056;2023-08-08T12:03:54;19.50;99.90
34147;DHT22;20423;49.448;9.056;2023-08-08T12:06:20;19.30;99.90
34147;DHT22;20423;49.448;9.056;2023-08-08T12:08:46;19.40;99.90
34147;DHT22;20423;49.448;9.056;2023-08-08T12:11:12;19.10;99.90
34147;DHT22;20423;49.448;9.056;2023-08-08T12:13:38;19.20;99.90
34147;DHT22;20423;49.448;9.056;2023-08-08T12:16:11;19.40;99.90
34147;DHT22;20423;49.448;9.056;2023-08-08T12:18:37;19.30;99.90
34147;DHT22;20423;49.448;9.056;2023-08-08T12:21:04;19.30;99.90
34147;DHT22;20423;49.448;9.056;2023-08-08T12:23:30;19.30;99.90
34147;DHT22;20423;49.448;9.056;2023-08-08T12:25:56;19.30;99.90
34147;DHT22;20423;49.448;9.056;2023-08-08T12:28:23;19.40;99.90
34147;DHT22;20423;49.448;9.056;2023-08-08T12:30:48;19.30;99.90
34147;DHT22;20423;49.448;9.056;2023-08-08T12:33:14;19.60;99.90
34147;DHT22;20423;49.448;9.056;2023-08-08T12:35:39;20.00;99.90
34147;DHT22;20423;49.448;9.056;2023-08-08T12:38:05;20.40;99.90
34147;DHT22;20423;49.448;9.056;2023-08-08T12:40:31;20.10;99.90
34147;DHT22;20423;49.448;9.056;2023-08-08T12:42:57;20.20;99.90
34147;DHT22;20423;49.448;9.056;2023-08-08T12:45:22;20.30;99.90
34147;DHT22;20423;49.448;9.056;2023-08-08T12:47:48;20.80;99.90
34147;DHT22;20423;49.448;9.056;2023-08-08T12:50:13;20.60;99.90
34147;DHT22;20423;49.448;9.056;2023-08-08T12:52:39;20.80;99.90
34147;DHT22;20423;49.448;9.056;2023-08-08T12:55:05;21.20;99.90
34147;DHT22;20423;49.448;9.056;2023-08-08T12:57:32;21.50;99.90
34147;DHT22;20423;49.448;9.056;2023-08-08T12:59:58;21.70;99.90
34147;DHT22;20423;49.448;9.056;2023-08-08T13:02:24;21.70;99.90
34147;DHT22;20423;49.448;9.056;2023-08-08T13:04:49;21.10;99.90
34147;DHT22;20423;49.448;9.056;2023-08-08T13:07:15;20.80;99.90
34147;DHT22;20423;49.448;9.056;2023-08-08T13:09:41;20.40;99.90
34147;DHT22;20423;49.448;9.056;2023-08-08T13:12:07;20.50;99.90
34147;DHT22;20423;49.448;9.056;2023-08-08T13:14:32;20.80;99.90
34147;DHT22;20423;49.448;9.056;2023-08-08T13:17:01;21.40;99.90
34147;DHT22;20423;49.448;9.056;2023-08-08T13:19:27;21.50;99.90
34147;DHT22;20423;49.448;9.056;2023-08-08T13:21:52;22.40;98.20
34147;DHT22;20423;49.448;9.056;2023-08-08T13:24:19;23.00;97.30
34147;DHT22;20423;49.448;9.056;2023-08-08T13:26:48;23.00;95.70
34147;DHT22;20423;49.448;9.056;2023-08-08T13:29:17;22.80;95.80
34147;DHT22;20423;49.448;9.056;2023-08-08T13:31:42;22.90;95.80
34147;DHT22;20423;49.448;9.056;2023-08-08T13:34:09;22.80;94.60
34147;DHT22;20423;49.448;9.056;2023-08-08T13:36:34;22.00;94.00
34147;DHT22;20423;49.448;9.056;2023-08-08T13:39:00;21.30;95.90
34147;DHT22;20423;49.448;9.056;2023-08-08T13:41:26;20.90;95.00
34147;DHT22;20423;49.448;9.056;2023-08-08T13:43:51;20.30;94.00
34147;DHT22;20423;49.448;9.056;2023-08-08T13:46:17;20.10;94.60
34147;DHT22;20423;49.448;9.056;2023-08-08T13:48:43;20.30;96.60
34147;DHT22;20423;49.448;9.056;2023-08-08T13:51:08;20.60;96.20
34147;DHT22;20423;49.448;9.056;2023-08-08T13:53:34;20.80;96.30
34147;DHT22;20423;49.448;9.056;2023-08-08T13:55:59;21.00;95.90
34147;DHT22;20423;49.448;9.056;2023-08-08T13:58:25;20.70;96.20
34147;DHT22;20423;49.448;9.056;2023-08-08T14:00:51;20.70;95.90
34147;DHT22;20423;49.448;9.056;2023-08-08T14:03:17;20.70;97.20
34147;DHT22;20423;49.448;9.056;2023-08-08T14:05:43;20.80;96.10
34147;DHT22;20423;49.448;9.056;2023-08-08T14:08:08;20.60;95.20
34147;DHT22;20423;49.448;9.056;2023-08-08T14:10:34;20.50;95.80
34147;DHT22;20423;49.448;9.056;2023-08-08T14:13:00;20.30;95.80
34147;DHT22;20423;49.448;9.056;2023-08-08T14:15:27;20.10;96.70
34147;DHT22;20423;49.448;9.056;2023-08-08T14:18:05;19.90;97.70
34147;DHT22;20423;49.448;9.056;2023-08-08T14:20:31;20.20;97.60
34147;DHT22;20423;49.448;9.056;2023-08-08T14:22:57;20.10;98.10
34147;DHT22;20423;49.448;9.056;2023-08-08T14:25:22;19.80;98.00
34147;DHT22;20423;49.448;9.056;2023-08-08T14:27:48;19.40;97.60
34147;DHT22;20423;49.448;9.056;2023-08-08T14:30:14;19.30;98.50
34147;DHT22;20423;49.448;9.056;2023-08-08T14:32:39;19.40;98.80
34147;DHT22;20423;49.448;9.056;2023-08-08T14:35:05;19.70;99.40
34147;DHT22;20423;49.448;9.056;2023-08-08T14:37:31;20.00;98.50
34147;DHT22;20423;49.448;9.056;2023-08-08T14:39:57;20.20;98.80
34147;DHT22;20423;49.448;9.056;2023-08-08T14:42:23;20.20;98.50
34147;DHT22;20423;49.448;9.056;2023-08-08T14:44:49;20.30;98.80
34147;DHT22;20423;49.448;9.056;2023-08-08T14:47:14;20.40;98.10
34147;DHT22;20423;49.448;9.056;2023-08-08T14:49:40;20.40;98.70
34147;DHT22;20423;49.448;9.056;2023-08-08T14:52:05;20.20;97.60
34147;DHT22;20423;49.448;9.056;2023-08-08T14:54:34;20.20;97.60
34147;DHT22;20423;49.448;9.056;2023-08-08T14:56:59;19.90;97.60
34147;DHT22;20423;49.448;9.056;2023-08-08T14:59:27;19.70;98.00
34147;DHT22;20423;49.448;9.056;2023-08-08T15:01:52;20.00;98.30
34147;DHT22;20423;49.448;9.056;2023-08-08T15:04:18;20.70;98.10
34147;DHT22;20423;49.448;9.056;2023-08-08T15:06:44;21.10;96.40
34147;DHT22;20423;49.448;9.056;2023-08-08T15:09:10;20.90;96.50
34147;DHT22;20423;49.448;9.056;2023-08-08T15:11:36;21.00;97.50
34147;DHT22;20423;49.448;9.056;2023-08-08T15:14:02;21.70;97.50
34147;DHT22;20423;49.448;9.056;2023-08-08T15:16:28;21.70;94.70
34147;DHT22;20423;49.448;9.056;2023-08-08T15:18:54;20.80;95.10
34147;DHT22;20423;49.448;9.056;2023-08-08T15:21:20;20.30;96.70
34147;DHT22;20423;49.448;9.056;2023-08-08T15:23:46;20.10;96.90
34147;DHT22;20423;49.448;9.056;2023-08-08T15:26:12;19.50;97.10
34147;DHT22;20423;49.448;9.056;2023-08-08T15:28:38;19.30;98.40
34147;DHT22;20423;49.448;9.056;2023-08-08T15:31:03;19.10;98.30
34147;DHT22;20423;49.448;9.056;2023-08-08T15:33:29;18.80;98.90
34147;DHT22;20423;49.448;9.056;2023-08-08T15:35:55;18.60;99.80
34147;DHT22;20423;49.448;9.056;2023-08-08T15:38:20;18.50;99.30
34147;DHT22;20423;49.448;9.056;2023-08-08T15:40:46;18.30;99.90
34147;DHT22;20423;49.448;9.056;2023-08-08T15:43:12;18.20;99.90